createdAt,value
2023-05-02T00:02:11.668Z,14.31
2023-05-02T00:04:39.639Z,14.39
2023-05-02T00:07:07.147Z,14.29
2023-05-02T00:09:34.710Z,14.21
2023-05-02T00:12:02.646Z,14.19
2023-05-02T00:14:30.241Z,14.16
2023-05-02T00:16:57.754Z,14.14
2023-05-02T00:19:25.386Z,14.23
2023-05-02T00:21:53.372Z,14.09
2023-05-02T00:24:21.142Z,14.13
2023-05-02T00:26:48.638Z,14.10
2023-05-02T00:29:16.189Z,14.12
2023-05-02T00:31:43.681Z,14.08
2023-05-02T00:34:11.700Z,14.07
2023-05-02T00:36:39.206Z,14.05
2023-05-02T00:39:06.669Z,14.10
2023-05-02T00:41:34.314Z,14.17
2023-05-02T00:44:02.130Z,14.12
2023-05-02T00:46:30.710Z,14.16
2023-05-02T00:48:58.426Z,14.09
2023-05-02T00:51:27.356Z,13.98
2023-05-02T00:53:55.146Z,13.81
2023-05-02T00:56:22.662Z,13.73
2023-05-02T00:58:50.541Z,13.78
2023-05-02T01:01:59.924Z,13.75
2023-05-02T01:04:45.092Z,13.70
2023-05-02T01:08:10.530Z,13.77
2023-05-02T01:11:17.107Z,13.79
2023-05-02T01:13:45.879Z,13.68
2023-05-02T01:16:17.096Z,13.60
2023-05-02T01:18:45.463Z,13.75
2023-05-02T01:21:13.432Z,13.60
2023-05-02T01:23:52.912Z,13.50
2023-05-02T01:26:52.316Z,13.50
2023-05-02T01:29:22.205Z,13.59
2023-05-02T01:31:51.522Z,13.53
2023-05-02T01:34:21.557Z,13.40
2023-05-02T01:36:51.838Z,13.45
2023-05-02T01:39:24.595Z,13.48
2023-05-02T01:41:57.100Z,13.31
2023-05-02T01:44:26.408Z,13.31
2023-05-02T01:46:56.298Z,13.23
2023-05-02T01:49:26.155Z,13.13
2023-05-02T01:51:54.027Z,13.18
2023-05-02T01:54:24.073Z,13.22
2023-05-02T01:56:53.054Z,13.20
2023-05-02T01:59:24.782Z,13.20
2023-05-02T02:01:53.488Z,13.14
2023-05-02T02:04:23.220Z,12.95
2023-05-02T02:06:58.311Z,12.80
2023-05-02T02:09:26.299Z,12.93
2023-05-02T02:12:06.241Z,12.77
2023-05-02T02:14:46.772Z,12.71
2023-05-02T02:17:32.732Z,12.48
2023-05-02T02:20:05.690Z,12.50
2023-05-02T02:22:38.901Z,12.58
2023-05-02T02:25:11.686Z,12.42
2023-05-02T02:27:41.126Z,12.39
2023-05-02T02:30:10.627Z,12.53
2023-05-02T02:32:38.798Z,12.62
2023-05-02T02:35:08.059Z,12.51
2023-05-02T02:37:58.445Z,12.58
2023-05-02T02:40:43.716Z,12.50
2023-05-02T02:43:32.673Z,12.36
2023-05-02T02:46:21.318Z,12.39
2023-05-02T02:49:23.490Z,12.47
2023-05-02T02:52:07.977Z,12.37
2023-05-02T02:54:58.740Z,12.09
2023-05-02T02:57:54.270Z,12.02
2023-05-02T03:00:26.079Z,12.04
2023-05-02T03:02:55.033Z,12.02
2023-05-02T03:05:23.942Z,12.04
2023-05-02T03:07:53.377Z,12.28
2023-05-02T03:10:23.889Z,12.22
2023-05-02T03:12:55.583Z,11.83
2023-05-02T03:15:52.002Z,11.73
2023-05-02T03:18:23.539Z,11.58
2023-05-02T03:20:51.548Z,11.48
2023-05-02T03:23:19.270Z,11.36
2023-05-02T03:25:47.111Z,11.47
2023-05-02T03:28:20.169Z,11.39
2023-05-02T03:30:49.771Z,11.34
2023-05-02T03:33:17.467Z,11.45
2023-05-02T03:35:46.988Z,11.45
2023-05-02T03:38:14.947Z,11.54
2023-05-02T03:40:44.399Z,11.27
2023-05-02T03:43:12.664Z,11.23
2023-05-02T03:45:41.099Z,11.36
2023-05-02T03:48:09.855Z,11.41
2023-05-02T03:50:38.594Z,11.40
2023-05-02T03:53:08.315Z,11.33
2023-05-02T03:55:47.463Z,11.26
2023-05-02T03:58:23.243Z,11.21
2023-05-02T04:00:52.864Z,11.29
2023-05-02T04:03:21.631Z,11.35
2023-05-02T04:05:51.594Z,11.37
2023-05-02T04:08:19.726Z,11.53
2023-05-02T04:10:47.899Z,11.54
2023-05-02T04:13:15.447Z,11.71
2023-05-02T04:15:48.086Z,11.53
2023-05-02T04:18:19.651Z,11.68
2023-05-02T04:20:48.286Z,11.76
2023-05-02T04:23:18.055Z,11.82
2023-05-02T04:25:55.160Z,12.00
2023-05-02T04:28:27.564Z,12.09
2023-05-02T04:30:56.209Z,12.42
2023-05-02T04:33:25.107Z,12.48
2023-05-02T04:35:54.627Z,12.44
2023-05-02T04:38:23.865Z,11.99
2023-05-02T04:40:52.617Z,12.02
2023-05-02T04:43:26.239Z,11.72
2023-05-02T04:46:01.650Z,12.14
2023-05-02T04:48:34.047Z,12.27
2023-05-02T04:51:01.548Z,12.15
2023-05-02T04:53:30.789Z,12.21
2023-05-02T04:55:58.479Z,12.48
2023-05-02T04:58:27.336Z,12.59
2023-05-02T05:01:00.195Z,12.62
2023-05-02T05:03:30.034Z,12.86
2023-05-02T05:05:59.227Z,13.31
2023-05-02T05:08:28.061Z,13.39
2023-05-02T05:10:56.184Z,13.56
2023-05-02T05:13:24.665Z,13.56
2023-05-02T05:15:52.833Z,13.70
2023-05-02T05:18:23.951Z,13.41
2023-05-02T05:20:51.466Z,13.55
2023-05-02T05:23:19.009Z,13.59
2023-05-02T05:25:46.674Z,13.72
2023-05-02T05:28:18.628Z,14.00
2023-05-02T05:30:46.664Z,14.18
2023-05-02T05:33:18.191Z,14.45
2023-05-02T05:35:48.177Z,15.20
2023-05-02T05:38:15.715Z,15.14
2023-05-02T05:40:45.508Z,15.28
2023-05-02T05:43:13.333Z,15.48
2023-05-02T05:45:40.876Z,15.59
2023-05-02T05:48:08.524Z,15.53
2023-05-02T05:50:41.894Z,15.66
2023-05-02T05:53:09.388Z,15.50
2023-05-02T05:55:40.789Z,15.84
2023-05-02T05:58:09.961Z,15.94
2023-05-02T06:00:40.319Z,15.93
2023-05-02T06:03:09.819Z,16.00
2023-05-02T06:05:39.252Z,16.24
2023-05-02T06:08:07.995Z,16.25
2023-05-02T06:10:35.652Z,16.30
2023-05-02T06:13:03.766Z,16.55
2023-05-02T06:15:35.662Z,16.79
2023-05-02T06:18:05.560Z,16.75
2023-05-02T06:20:33.214Z,17.04
2023-05-02T06:23:00.712Z,17.18
2023-05-02T06:25:28.254Z,17.62
2023-05-02T06:27:55.824Z,17.65
2023-05-02T06:30:23.357Z,17.60
2023-05-02T06:32:50.883Z,17.82
2023-05-02T06:35:18.490Z,18.07
2023-05-02T06:37:45.977Z,18.63
2023-05-02T06:40:13.881Z,18.59
2023-05-02T06:42:41.417Z,18.54
2023-05-02T06:45:09.138Z,18.94
2023-05-02T06:47:36.622Z,18.84
2023-05-02T06:50:04.380Z,18.94
2023-05-02T06:52:31.832Z,18.93
2023-05-02T06:54:59.285Z,19.33
2023-05-02T06:57:26.960Z,19.35
2023-05-02T06:59:54.487Z,19.49
2023-05-02T07:02:22.361Z,19.63
2023-05-02T07:04:49.970Z,19.69
2023-05-02T07:07:18.988Z,19.87
2023-05-02T07:09:48.899Z,19.77
2023-05-02T07:12:16.389Z,19.95
2023-05-02T07:14:44.460Z,19.83
2023-05-02T07:17:11.917Z,19.62
2023-05-02T07:19:39.466Z,19.83
2023-05-02T07:22:07.368Z,20.18
2023-05-02T07:24:35.096Z,20.01
2023-05-02T07:27:03.360Z,20.18
2023-05-02T07:29:30.817Z,20.21
2023-05-02T07:31:58.357Z,20.17
2023-05-02T07:34:25.813Z,20.20
2023-05-02T07:36:53.318Z,20.30
2023-05-02T07:39:20.896Z,20.39
2023-05-02T07:41:51.206Z,20.58
2023-05-02T07:44:18.668Z,20.68
2023-05-02T07:46:46.296Z,20.64
2023-05-02T07:49:14.769Z,20.81
2023-05-02T07:51:42.640Z,21.13
2023-05-02T07:54:36.187Z,21.38
2023-05-02T07:57:05.237Z,21.19
2023-05-02T07:59:32.687Z,21.26
2023-05-02T08:02:00.455Z,21.29
2023-05-02T08:04:28.804Z,21.44
2023-05-02T08:06:56.664Z,21.58
2023-05-02T08:09:24.267Z,21.59
2023-05-02T08:11:51.838Z,21.28
2023-05-02T08:14:19.388Z,21.47
2023-05-02T08:16:46.931Z,21.63
2023-05-02T08:19:15.284Z,21.44
2023-05-02T08:21:43.687Z,21.77
2023-05-02T08:24:11.275Z,21.77
2023-05-02T08:26:38.751Z,21.80
2023-05-02T08:29:06.243Z,21.66
2023-05-02T08:31:34.140Z,21.66
2023-05-02T08:34:01.668Z,21.94
2023-05-02T08:36:29.258Z,22.13
2023-05-02T08:38:56.842Z,22.05
2023-05-02T08:41:24.968Z,22.23
2023-05-02T08:43:53.577Z,22.22
2023-05-02T08:46:24.621Z,22.35
2023-05-02T08:48:53.407Z,22.48
2023-05-02T08:51:24.088Z,22.32
2023-05-02T08:53:53.379Z,22.19
2023-05-02T08:56:21.855Z,22.47
2023-05-02T08:58:49.323Z,22.76
2023-05-02T09:01:19.508Z,22.52
2023-05-02T09:03:48.697Z,22.68
2023-05-02T09:06:19.315Z,22.83
2023-05-02T09:08:50.821Z,22.89
2023-05-02T09:11:19.110Z,22.74
2023-05-02T09:13:51.832Z,22.78
2023-05-02T09:16:25.805Z,22.86
2023-05-02T09:18:58.661Z,23.04
2023-05-02T09:21:37.393Z,23.02
2023-05-02T09:24:21.509Z,22.97
2023-05-02T09:27:03.217Z,23.14
2023-05-02T09:29:37.915Z,23.51
2023-05-02T09:32:08.309Z,23.48
2023-05-02T09:34:38.982Z,23.40
2023-05-02T09:37:06.655Z,23.46
2023-05-02T09:39:34.150Z,23.36
2023-05-02T09:42:03.550Z,23.62
2023-05-02T09:44:39.337Z,23.58
2023-05-02T09:47:09.315Z,23.86
2023-05-02T09:49:47.145Z,23.83
2023-05-02T09:52:21.715Z,23.90
2023-05-02T09:54:53.353Z,23.85
2023-05-02T09:57:21.996Z,24.13
2023-05-02T09:59:57.836Z,24.27
2023-05-02T10:02:26.566Z,23.94
2023-05-02T10:04:59.012Z,23.68
2023-05-02T10:07:27.215Z,23.67
2023-05-02T10:09:56.711Z,23.87
2023-05-02T10:12:27.384Z,23.89
2023-05-02T10:15:04.445Z,23.78
2023-05-02T10:20:08.593Z,24.22
2023-05-02T10:22:36.985Z,24.22
2023-05-02T10:25:08.038Z,24.31
2023-05-02T10:27:35.696Z,24.36
2023-05-02T10:30:04.720Z,24.35
2023-05-02T10:32:34.875Z,24.30
2023-05-02T10:35:08.384Z,24.28
2023-05-02T10:37:40.275Z,24.49
2023-05-02T10:40:12.654Z,24.68
2023-05-02T10:42:45.913Z,24.68
2023-05-02T10:45:33.998Z,24.75
2023-05-02T10:48:22.333Z,25.09
2023-05-02T10:51:03.814Z,25.45
2023-05-02T10:53:40.397Z,25.38
2023-05-02T10:56:26.474Z,25.50
2023-05-02T10:59:28.776Z,25.52
2023-05-02T11:01:57.983Z,25.40
2023-05-02T11:04:25.752Z,25.52
2023-05-02T11:07:02.343Z,25.46
2023-05-02T11:09:29.706Z,25.47
2023-05-02T11:11:57.590Z,25.60
2023-05-02T11:14:29.263Z,25.61
2023-05-02T11:17:05.555Z,25.97
2023-05-02T11:19:39.071Z,25.96
2023-05-02T11:22:21.910Z,26.20
2023-05-02T11:24:51.122Z,26.15
2023-05-02T11:27:31.306Z,26.06
2023-05-02T11:30:17.115Z,26.00
2023-05-02T11:32:45.514Z,25.78
2023-05-02T11:35:27.932Z,25.90
2023-05-02T11:38:03.773Z,26.08
2023-05-02T11:40:32.595Z,26.42
2023-05-02T11:43:04.408Z,26.30
2023-05-02T11:45:36.506Z,25.78
2023-05-02T11:48:07.950Z,25.52
2023-05-02T11:50:49.674Z,25.77
2023-05-02T11:53:25.040Z,25.92
2023-05-02T11:56:02.392Z,26.09
2023-05-02T11:59:00.012Z,25.94
2023-05-02T12:01:28.397Z,25.72
2023-05-02T12:04:08.265Z,25.55
2023-05-02T12:06:36.489Z,25.38
2023-05-02T12:09:16.510Z,25.38
2023-05-02T12:11:44.473Z,25.54
2023-05-02T12:14:12.051Z,25.55
2023-05-02T12:16:39.670Z,25.55
2023-05-02T12:19:07.693Z,25.93
2023-05-02T12:21:35.919Z,26.18
2023-05-02T12:24:04.376Z,26.11
2023-05-02T12:26:33.171Z,26.16
2023-05-02T12:29:02.781Z,26.25
2023-05-02T12:31:32.314Z,26.65
2023-05-02T12:34:01.343Z,26.96
2023-05-02T12:36:29.914Z,26.93
2023-05-02T12:38:59.850Z,26.87
2023-05-02T12:41:39.618Z,27.02
2023-05-02T12:44:07.926Z,26.91
2023-05-02T12:46:38.865Z,26.88
2023-05-02T12:49:09.501Z,26.87
2023-05-02T12:51:38.709Z,26.51
2023-05-02T12:54:07.111Z,26.48
2023-05-02T12:56:43.740Z,26.40
2023-05-02T12:59:30.809Z,26.22
2023-05-02T13:02:00.617Z,26.35
2023-05-02T13:04:42.188Z,26.46
2023-05-02T13:07:11.255Z,26.38
2023-05-02T13:09:38.944Z,26.38
2023-05-02T13:12:06.830Z,26.51
2023-05-02T13:14:34.432Z,26.59
2023-05-02T13:17:02.071Z,26.66
2023-05-02T13:19:31.511Z,26.79
2023-05-02T13:21:59.339Z,26.63
2023-05-02T13:24:26.932Z,26.41
2023-05-02T13:26:54.316Z,26.40
2023-05-02T13:29:21.842Z,26.53
2023-05-02T13:31:49.247Z,26.41
2023-05-02T13:34:16.772Z,26.22
2023-05-02T13:36:46.359Z,26.37
2023-05-02T13:39:14.483Z,26.43
2023-05-02T13:41:42.009Z,26.64
2023-05-02T13:44:10.025Z,26.63
2023-05-02T13:46:38.507Z,26.73
2023-05-02T13:49:06.531Z,26.67
2023-05-02T13:51:34.099Z,26.53
2023-05-02T13:54:02.478Z,26.48
2023-05-02T13:56:30.039Z,26.48
2023-05-02T13:58:57.760Z,26.47
2023-05-02T14:01:28.231Z,26.47
2023-05-02T14:03:56.009Z,26.46
2023-05-02T14:06:23.791Z,26.21
2023-05-02T14:08:52.903Z,26.21
2023-05-02T14:11:20.356Z,26.13
2023-05-02T14:13:48.085Z,26.04
2023-05-02T14:16:17.086Z,26.20
2023-05-02T14:18:45.720Z,26.42
2023-05-02T14:21:13.255Z,26.43
2023-05-02T14:23:40.688Z,26.40
2023-05-02T14:26:08.247Z,26.25
2023-05-02T14:28:38.449Z,26.24
2023-05-02T14:31:07.927Z,26.23
2023-05-02T14:33:35.668Z,26.05
2023-05-02T14:36:03.878Z,26.21
2023-05-02T14:38:38.872Z,26.35
2023-05-02T14:41:07.036Z,26.41
2023-05-02T14:43:37.204Z,26.38
2023-05-02T14:46:08.076Z,26.44
2023-05-02T14:48:36.170Z,26.55
2023-05-02T14:51:07.520Z,26.57
2023-05-02T14:53:39.465Z,26.36
2023-05-02T14:56:14.070Z,26.20
2023-05-02T14:58:42.040Z,25.95
2023-05-02T15:01:19.964Z,25.88
2023-05-02T15:04:05.206Z,25.92
2023-05-02T15:06:34.923Z,25.99
2023-05-02T15:09:05.163Z,25.95
2023-05-02T15:11:33.105Z,25.95
2023-05-02T15:14:00.941Z,26.01
2023-05-02T15:16:29.040Z,26.00
2023-05-02T15:18:56.568Z,25.85
2023-05-02T15:21:26.959Z,25.95
2023-05-02T15:23:54.509Z,25.94
2023-05-02T15:26:23.233Z,25.76
2023-05-02T15:28:50.766Z,25.60
2023-05-02T15:31:18.385Z,25.37
2023-05-02T15:33:45.969Z,25.10
2023-05-02T15:36:14.289Z,24.97
2023-05-02T15:38:43.094Z,24.71
2023-05-02T15:41:13.676Z,24.71
2023-05-02T15:43:41.236Z,24.50
2023-05-02T15:46:08.890Z,24.50
2023-05-02T15:48:36.529Z,24.52
2023-05-02T15:51:05.650Z,24.43
2023-05-02T15:53:34.905Z,24.34
2023-05-02T15:56:02.438Z,24.19
2023-05-02T15:58:30.113Z,23.95
2023-05-02T16:00:57.870Z,23.89
2023-05-02T16:03:25.491Z,23.67
2023-05-02T16:05:58.036Z,23.61
2023-05-02T16:08:27.165Z,23.55
2023-05-02T16:10:56.072Z,23.52
2023-05-02T16:13:23.739Z,23.61
2023-05-02T16:15:54.550Z,23.54
2023-05-02T16:18:28.118Z,23.64
2023-05-02T16:20:59.121Z,23.54
2023-05-02T16:23:27.912Z,23.31
2023-05-02T16:26:01.689Z,23.34
2023-05-02T16:28:31.796Z,23.11
2023-05-02T16:30:59.357Z,23.17
2023-05-02T16:33:28.048Z,23.03
2023-05-02T16:36:05.455Z,22.81
2023-05-02T16:38:33.509Z,22.82
2023-05-02T16:41:07.302Z,22.74
2023-05-02T16:43:35.008Z,22.54
2023-05-02T16:46:07.338Z,22.44
2023-05-02T16:48:35.773Z,22.39
2023-05-02T16:51:04.383Z,22.33
2023-05-02T16:53:32.146Z,22.26
2023-05-02T16:55:59.985Z,22.14
2023-05-02T16:58:32.665Z,21.99
2023-05-02T17:01:01.608Z,21.94
2023-05-02T17:03:30.368Z,21.77
2023-05-02T17:06:02.059Z,21.71
2023-05-02T17:08:30.536Z,21.69
2023-05-02T17:10:58.134Z,21.45
2023-05-02T17:13:25.664Z,21.34
2023-05-02T17:15:53.791Z,21.19
2023-05-02T17:18:22.447Z,21.02
2023-05-02T17:20:52.117Z,21.06
2023-05-02T17:23:19.991Z,20.89
2023-05-02T17:25:47.830Z,20.70
2023-05-02T17:28:15.348Z,20.69
2023-05-02T17:30:44.255Z,20.48
2023-05-02T17:33:11.897Z,20.32
2023-05-02T17:35:40.000Z,20.31
2023-05-02T17:38:09.918Z,20.24
2023-05-02T17:40:38.276Z,20.12
2023-05-02T17:43:08.862Z,20.10
2023-05-02T17:45:36.497Z,20.08
2023-05-02T17:48:04.675Z,19.78
2023-05-02T17:50:36.699Z,19.71
2023-05-02T17:53:05.470Z,19.51
2023-05-02T17:55:37.235Z,19.37
2023-05-02T17:58:07.099Z,19.39
2023-05-02T18:00:34.701Z,19.36
2023-05-02T18:03:19.479Z,19.34
2023-05-02T18:05:47.838Z,19.29
2023-05-02T18:08:18.927Z,19.11
2023-05-02T18:10:49.265Z,19.14
2023-05-02T18:13:24.406Z,19.01
2023-05-02T18:15:59.731Z,18.91
2023-05-02T18:18:30.256Z,18.77
2023-05-02T18:20:58.408Z,18.86
2023-05-02T18:23:26.035Z,18.76
2023-05-02T18:25:53.695Z,18.83
2023-05-02T18:28:22.949Z,18.76
2023-05-02T18:30:52.435Z,18.59
2023-05-02T18:33:20.791Z,18.60
2023-05-02T18:35:50.227Z,18.56
2023-05-02T18:38:20.396Z,18.77
2023-05-02T18:40:48.697Z,18.50
2023-05-02T18:43:16.278Z,18.38
2023-05-02T18:45:47.449Z,18.28
2023-05-02T18:48:14.929Z,18.17
2023-05-02T18:50:42.633Z,18.07
2023-05-02T18:53:13.401Z,18.13
2023-05-02T18:55:41.254Z,17.94
2023-05-02T18:58:10.233Z,17.72
2023-05-02T19:00:39.890Z,17.85
2023-05-02T19:03:07.978Z,17.73
2023-05-02T19:05:39.006Z,17.66
2023-05-02T19:08:08.669Z,17.75
2023-05-02T19:10:38.151Z,17.76
2023-05-02T19:13:05.928Z,17.80
2023-05-02T19:15:38.369Z,17.72
2023-05-02T19:18:07.809Z,17.63
2023-05-02T19:20:35.706Z,17.88
2023-05-02T19:23:19.108Z,17.74
2023-05-02T19:25:50.224Z,17.81
2023-05-02T19:28:20.973Z,17.79
2023-05-02T19:30:50.960Z,17.77
2023-05-02T19:33:26.772Z,17.59
2023-05-02T19:36:01.588Z,17.44
2023-05-02T19:38:32.905Z,17.54
2023-05-02T19:41:04.325Z,17.56
2023-05-02T19:43:33.653Z,17.41
2023-05-02T19:46:02.934Z,17.42
2023-05-02T19:48:36.201Z,17.33
2023-05-02T19:51:06.149Z,17.22
2023-05-02T19:53:36.213Z,17.21
2023-05-02T19:56:07.069Z,17.44
2023-05-02T19:58:38.837Z,17.36
2023-05-02T20:01:08.923Z,17.36
2023-05-02T20:03:37.017Z,17.24
2023-05-02T20:06:07.966Z,17.14
2023-05-02T20:08:39.511Z,17.08
2023-05-02T20:11:10.623Z,16.98
2023-05-02T20:13:41.776Z,16.89
2023-05-02T20:16:10.892Z,16.74
2023-05-02T20:18:42.447Z,16.59
2023-05-02T20:21:10.779Z,16.55
2023-05-02T20:23:43.353Z,16.71
2023-05-02T20:26:11.493Z,16.63
2023-05-02T20:28:41.642Z,16.43
2023-05-02T20:31:09.733Z,16.45
2023-05-02T20:33:45.157Z,16.38
2023-05-02T20:36:14.951Z,16.48
2023-05-02T20:38:53.239Z,16.40
2023-05-02T20:41:21.441Z,16.41
2023-05-02T20:43:49.782Z,16.30
2023-05-02T20:46:17.577Z,16.18
2023-05-02T20:48:48.328Z,16.28
2023-05-02T20:51:16.745Z,16.18
2023-05-02T20:53:44.884Z,16.25
2023-05-02T20:56:12.424Z,16.07
2023-05-02T20:58:39.854Z,16.08
2023-05-02T21:01:07.695Z,16.08
2023-05-02T21:03:39.277Z,15.99
2023-05-02T21:06:07.114Z,15.94
2023-05-02T21:08:35.358Z,15.97
2023-05-02T21:11:03.228Z,15.95
2023-05-02T21:13:31.910Z,15.89
2023-05-02T21:15:59.436Z,15.81
2023-05-02T21:18:26.943Z,15.82
2023-05-02T21:20:54.479Z,15.78
2023-05-02T21:23:21.934Z,16.05
2023-05-02T21:25:49.367Z,15.93
2023-05-02T21:28:16.817Z,15.87
2023-05-02T21:30:44.420Z,15.91
2023-05-02T21:33:13.367Z,15.90
2023-05-02T21:35:40.872Z,15.79
2023-05-02T21:38:08.400Z,15.75
2023-05-02T21:40:39.396Z,15.69
2023-05-02T21:43:06.948Z,15.68
2023-05-02T21:45:34.813Z,15.47
2023-05-02T21:48:02.704Z,15.26
2023-05-02T21:50:30.282Z,15.17
2023-05-02T21:52:57.712Z,15.17
2023-05-02T21:55:25.350Z,15.10
2023-05-02T21:57:52.899Z,14.90
2023-05-02T22:00:20.697Z,14.95
2023-05-02T22:02:48.402Z,14.93
2023-05-02T22:05:16.553Z,15.03
2023-05-02T22:07:44.027Z,14.94
2023-05-02T22:10:11.990Z,14.82
2023-05-02T22:12:39.560Z,14.78
2023-05-02T22:15:09.699Z,14.76
2023-05-02T22:17:37.453Z,14.77
2023-05-02T22:20:08.241Z,14.83
2023-05-02T22:22:35.838Z,14.94
2023-05-02T22:25:03.367Z,14.92
2023-05-02T22:27:30.966Z,14.94
2023-05-02T22:29:58.556Z,14.91
2023-05-02T22:32:26.944Z,14.83
2023-05-02T22:34:54.512Z,14.74
2023-05-02T22:37:21.981Z,14.68
2023-05-02T22:39:49.631Z,14.54
2023-05-02T22:42:17.316Z,14.61
2023-05-02T22:44:53.517Z,14.67
2023-05-02T22:47:22.213Z,14.72
2023-05-02T22:49:51.073Z,14.37
2023-05-02T22:52:18.637Z,14.37
2023-05-02T22:54:46.168Z,14.39
2023-05-02T22:57:13.634Z,14.19
2023-05-02T22:59:41.248Z,14.08
2023-05-02T23:02:12.190Z,14.07
2023-05-02T23:04:39.648Z,14.10
2023-05-02T23:07:07.585Z,14.18
2023-05-02T23:09:35.056Z,14.39
2023-05-02T23:12:03.902Z,14.29
2023-05-02T23:14:31.413Z,14.26
2023-05-02T23:17:01.078Z,14.19
2023-05-02T23:19:28.793Z,14.15
2023-05-02T23:21:56.850Z,14.07
2023-05-02T23:24:24.378Z,14.27
2023-05-02T23:26:52.258Z,14.50
2023-05-02T23:29:19.984Z,14.34
2023-05-02T23:31:54.543Z,14.55
2023-05-02T23:34:22.736Z,14.69
2023-05-02T23:36:51.853Z,14.61
2023-05-02T23:39:19.584Z,14.59
2023-05-02T23:41:47.161Z,14.57
2023-05-02T23:44:14.637Z,14.42
2023-05-02T23:46:42.134Z,14.35
2023-05-02T23:49:09.863Z,14.39
2023-05-02T23:51:37.811Z,14.21
2023-05-02T23:54:05.416Z,14.34
2023-05-02T23:56:32.860Z,14.46
2023-05-02T23:59:00.269Z,14.41
